Time;durP1;ratioP1;P1;durP2;ratioP2;P2;SDS_P1;SDS_P2;PMS_P1;PMS_P2;Temp;Humidity;BMP_temperature;BMP_pressure;BME280_temperature;BME280_humidity;BME280_pressure;Samples;Min_cycle;Max_cycle;Signal;HPM_P1;HPM_P2
2023/02/08 00:00:10;;;;;;;;;47.00;37.80;;;;;3.37;58.13;103497.53;1984072;28;3613750;-75
2023/02/08 00:01:23;;;;;;;;;36.00;35.00;;;;;3.36;58.35;103500.94;1954149;28;2842962;-75
2023/02/08 00:02:33;;;;;;;;;39.00;35.00;;;;;3.35;58.31;103493.09;1962565;28;2858539;-75
2023/02/08 00:03:46;;;;;;;;;45.00;36.00;;;;;3.34;57.82;103493.91;1981297;28;3624147;-75
2023/02/08 00:04:57;;;;;;;;;44.00;38.00;;;;;3.33;58.58;103497.34;1962616;28;2854503;-75
2023/02/08 00:06:09;;;;;;;;;41.60;37.80;;;;;3.32;58.25;103490.34;1982044;28;3593943;-75
2023/02/08 00:07:21;;;;;;;;;47.40;40.60;;;;;3.31;58.91;103492.06;1972257;28;3589831;-74
2023/02/08 00:08:36;;;;;;;;;44.60;39.00;;;;;3.29;58.57;103488.53;1985037;28;3614779;-74
2023/02/08 00:09:47;;;;;;;;;43.50;37.00;;;;;3.28;58.38;103486.75;1964073;28;2853371;-75
2023/02/08 00:10:59;;;;;;;;;44.00;37.60;;;;;3.26;58.18;103481.47;2002216;28;3605416;-75
2023/02/08 00:12:11;;;;;;;;;44.00;38.67;;;;;3.24;58.48;103488.31;1975364;28;3591286;-74
2023/02/08 00:13:23;;;;;;;;;39.67;36.33;;;;;3.22;58.07;103482.19;2000218;28;3596105;-75
2023/02/08 00:14:35;;;;;;;;;53.60;40.80;;;;;3.23;58.51;103488.28;2001017;28;3606479;-75
2023/02/08 00:15:46;;;;;;;;;53.20;40.40;;;;;3.22;58.59;103487.38;1966166;28;3586650;-75
2023/02/08 00:16:58;;;;;;;;;46.80;39.20;;;;;3.20;58.95;103482.94;2006286;28;3587731;-75
2023/02/08 00:18:11;;;;;;;;;51.80;38.80;;;;;3.19;59.12;103482.03;2004883;28;3627293;-75
2023/02/08 00:19:23;;;;;;;;;43.20;36.60;;;;;3.16;58.23;103471.53;1967955;28;3609620;-75
2023/02/08 00:20:37;;;;;;;;;44.00;36.67;;;;;3.15;58.76;103482.75;1981906;28;3610643;-75
2023/02/08 00:21:49;;;;;;;;;44.00;38.00;;;;;3.13;58.43;103477.50;1967202;28;3599222;-74
2023/02/08 00:23:01;;;;;;;;;39.33;35.00;;;;;3.13;58.46;103482.69;1976031;28;3591949;-74
2023/02/08 00:24:13;;;;;;;;;46.40;38.00;;;;;3.12;58.60;103475.69;2005332;28;3614810;-74
2023/02/08 00:25:25;;;;;;;;;37.80;33.60;;;;;3.10;58.47;103474.75;1983238;28;3591859;-74
2023/02/08 00:26:37;;;;;;;;;45.33;38.00;;;;;3.10;58.78;103469.56;1975805;28;3602291;-75
2023/02/08 00:27:48;;;;;;;;;38.60;35.80;;;;;3.09;58.90;103475.56;1989893;28;3574258;-75
2023/02/08 00:29:00;;;;;;;;;45.80;38.80;;;;;3.07;58.36;103464.22;1997671;28;3608563;-75
2023/02/08 00:30:12;;;;;;;;;38.00;34.60;;;;;3.07;58.69;103472.00;1986738;28;3591886;-75
2023/02/08 00:31:24;;;;;;;;;44.00;35.67;;;;;3.06;58.58;103465.06;2003632;28;3613826;-75
2023/02/08 00:32:36;;;;;;;;;40.60;35.60;;;;;3.04;58.95;103462.38;1988862;28;3601222;-75
2023/02/08 00:33:48;;;;;;;;;38.33;34.00;;;;;3.06;58.96;103470.25;1969015;28;3605442;-75
2023/02/08 00:35:00;;;;;;;;;47.00;38.40;;;;;3.06;58.74;103465.06;1969969;28;3605423;-75
2023/02/08 00:36:12;;;;;;;;;43.60;35.80;;;;;3.05;58.78;103463.25;1981783;28;3608558;-75
2023/02/08 00:37:24;;;;;;;;;47.60;38.20;;;;;3.04;59.07;103462.38;1979962;28;3620002;-75
2023/02/08 00:38:36;;;;;;;;;43.80;37.60;;;;;3.03;59.12;103463.22;1974517;28;3601612;-75
2023/02/08 00:39:48;;;;;;;;;45.00;37.40;;;;;3.03;58.56;103463.22;1961040;28;3590816;-75
2023/02/08 00:41:00;;;;;;;;;44.60;39.80;;;;;3.02;58.79;103460.53;2000493;28;3583546;-75
2023/02/08 00:42:12;;;;;;;;;51.80;38.00;;;;;3.01;58.92;103458.78;1999782;28;3613767;-75
2023/02/08 00:43:24;;;;;;;;;41.33;38.00;;;;;3.01;59.63;103453.56;1968944;28;3565878;-75
2023/02/08 00:44:36;;;;;;;;;49.00;39.00;;;;;3.00;59.07;103460.47;1995864;28;3616899;-75
2023/02/08 00:45:58;;;;;;;;;38.20;34.40;;;;;2.99;58.96;103455.19;1989251;28;3590828;-75
2023/02/08 00:47:09;;;;;;;;;35.00;32.00;;;;;2.98;59.73;103458.63;1994195;28;2834652;-75
2023/02/08 00:48:21;;;;;;;;;46.00;38.20;;;;;2.98;58.85;103456.94;2011004;28;3603360;-75
2023/02/08 00:49:33;;;;;;;;;38.67;33.67;;;;;2.97;58.86;103457.72;1992546;28;3621091;-74
2023/02/08 00:50:59;;;;;;;;;42.00;38.00;;;;;2.97;58.87;103449.94;1968726;28;3599258;-74
2023/02/08 00:52:09;;;;;;;;;48.50;40.00;;;;;2.96;59.19;103452.47;1987406;28;2853745;-74
2023/02/08 00:53:21;;;;;;;;;48.00;39.33;;;;;2.95;59.43;103451.59;1983089;28;3587707;-75
2023/02/08 00:54:34;;;;;;;;;54.20;39.40;;;;;2.95;59.24;103455.88;2004845;28;3638813;-75
2023/02/08 00:55:54;;;;;;;;;49.20;37.00;;;;;2.92;59.13;103448.84;1973617;28;3628339;-75
2023/02/08 00:57:04;;;;;;;;;51.00;37.50;;;;;2.91;59.64;103454.88;1959769;28;2877840;-75
2023/02/08 00:58:16;;;;;;;;;50.60;38.40;;;;;2.91;59.18;103453.16;1977839;28;3634566;-75
2023/02/08 00:59:28;;;;;;;;;48.20;38.20;;;;;2.90;59.11;103458.28;1976430;28;3617936;-75
2023/02/08 01:00:40;;;;;;;;;46.67;38.00;;;;;2.89;59.32;103451.34;1970296;28;3617037;-75
2023/02/08 01:01:52;;;;;;;;;31.00;26.00;;;;;2.88;59.00;103455.63;1975919;28;3594005;-75
2023/02/08 01:03:04;;;;;;;;;44.00;37.33;;;;;2.88;59.38;103459.94;2007538;28;3617958;-75
2023/02/08 01:04:16;;;;;;;;;41.80;37.00;;;;;2.87;59.02;103445.16;1987536;28;3609559;-75
2023/02/08 01:05:28;;;;;;;;;44.20;38.00;;;;;2.86;59.34;103446.91;1989166;28;3602274;-75
2023/02/08 01:06:40;;;;;;;;;53.33;39.00;;;;;2.86;59.09;103451.19;2006442;28;3611706;-75
2023/02/08 01:07:52;;;;;;;;;42.60;35.60;;;;;2.85;59.46;103452.91;1989457;28;3595024;-75
2023/02/08 01:09:04;;;;;;;;;50.00;35.33;;;;;2.85;59.01;103458.09;1976221;28;3608608;-75
2023/02/08 01:10:16;;;;;;;;;49.80;36.40;;;;;2.84;59.88;103456.31;1973383;28;3612676;-75
2023/02/08 01:11:28;;;;;;;;;50.20;38.40;;;;;2.83;59.40;103454.53;1979580;28;3624142;-75
2023/02/08 01:12:40;;;;;;;;;46.20;39.20;;;;;2.82;58.93;103457.94;1989576;28;3610665;-75
2023/02/08 01:13:56;;;;;;;;;53.80;42.20;;;;;2.83;59.57;103456.25;1989393;28;3603773;-75
2023/02/08 01:15:08;;;;;;;;;43.67;37.33;;;;;2.81;59.95;103459.66;1957421;28;3609934;-75
2023/02/08 01:16:22;;;;;;;;;45.40;38.40;;;;;2.81;59.00;103458.78;1965820;28;3604396;-75
2023/02/08 01:17:32;;;;;;;;;44.00;37.00;;;;;2.80;59.46;103457.00;1961824;28;2864840;-75
2023/02/08 01:18:47;;;;;;;;;38.60;35.80;;;;;2.80;59.45;103457.00;1986303;28;3579352;-75
2023/02/08 01:19:58;;;;;;;;;41.50;33.50;;;;;2.79;59.69;103460.44;1990191;28;2864867;-75
2023/02/08 01:21:13;;;;;;;;;35.00;32.40;;;;;2.77;59.91;103462.94;1986017;28;3585687;-75
2023/02/08 01:22:23;;;;;;;;;42.00;37.50;;;;;2.77;59.87;103467.25;1990025;28;2825274;-75
2023/02/08 01:23:36;;;;;;;;;42.40;38.20;;;;;2.76;59.31;103462.91;1983589;28;3606441;-75
2023/02/08 01:24:47;;;;;;;;;47.00;38.50;;;;;2.75;59.44;103459.41;1969551;28;2859947;-75
2023/02/08 01:25:59;;;;;;;;;43.33;37.33;;;;;2.74;59.25;103462.81;1978876;28;3600216;-75
2023/02/08 01:27:10;;;;;;;;;41.20;37.20;;;;;2.74;59.40;103461.94;2009879;28;3583541;-75
2023/02/08 01:28:22;;;;;;;;;44.20;36.20;;;;;2.74;59.69;103472.34;2012541;28;3596045;-75
2023/02/08 01:29:34;;;;;;;;;44.60;33.80;;;;;2.73;59.44;103467.94;1980300;28;3622117;-75
2023/02/08 01:30:46;;;;;;;;;34.67;24.33;;;;;2.72;59.58;103479.16;1982790;28;3607562;-75
2023/02/08 01:31:58;;;;;;;;;39.80;37.00;;;;;2.72;59.78;103472.25;1982791;28;3588726;-75
2023/02/08 01:33:10;;;;;;;;;39.00;35.67;;;;;2.73;59.66;103473.13;2008426;28;3594009;-75
2023/02/08 01:34:22;;;;;;;;;42.33;35.67;;;;;2.73;60.01;103475.72;1997191;28;3613796;-74
2023/02/08 01:35:34;;;;;;;;;38.00;36.00;;;;;2.72;59.72;103484.38;1972349;28;3601297;-74
2023/02/08 01:36:46;;;;;;;;;41.60;35.40;;;;;2.72;59.52;103479.16;1990371;28;3614767;-75
2023/02/08 01:37:58;;;;;;;;;44.60;36.40;;;;;2.72;59.62;103481.78;1979100;28;3602299;-75
2023/02/08 01:39:11;;;;;;;;;40.00;34.00;;;;;2.70;59.68;103477.38;1976292;28;3589851;-74
2023/02/08 01:40:21;;;;;;;;;38.50;35.00;;;;;2.70;60.15;103479.97;1985856;28;2850321;-74
2023/02/08 01:41:37;;;;;;;;;40.60;34.60;;;;;2.70;59.60;103473.88;1986855;28;3610616;-75
2023/02/08 01:42:48;;;;;;;;;37.33;33.33;;;;;2.70;59.79;103476.50;1991456;28;3600209;-75
2023/02/08 01:44:02;;;;;;;;;37.00;32.20;;;;;2.69;59.13;103485.97;1989840;28;3609622;-75
2023/02/08 01:45:14;;;;;;;;;41.00;35.00;;;;;2.69;59.43;103485.13;1966780;28;3577296;-75
2023/02/08 01:46:27;;;;;;;;;43.80;38.00;;;;;2.67;60.16;103481.53;2009303;28;3580390;-75
2023/02/08 01:47:37;;;;;;;;;46.50;40.00;;;;;2.66;59.97;103485.88;1988692;28;2859604;-74
2023/02/08 01:48:50;;;;;;;;;30.67;26.00;;;;;2.65;59.95;103486.66;1981207;28;3602302;-74
2023/02/08 01:50:00;;;;;;;;;15.00;8.67;;;;;2.66;60.06;103483.28;2002552;28;1854401;-74
2023/02/08 01:51:25;;;;;;;;;47.00;39.67;;;;;2.65;59.17;103483.19;1967583;28;3596077;-74
2023/02/08 01:52:37;;;;;;;;;39.50;36.00;;;;;2.66;60.11;103482.38;1972406;28;2854419;-74
2023/02/08 01:53:51;;;;;;;;;40.00;36.50;;;;;2.65;60.25;103483.19;1978447;28;2849208;-74
2023/02/08 01:55:11;;;;;;;;;44.50;36.00;;;;;2.63;59.74;103480.53;1981137;28;2851331;-74
2023/02/08 01:56:27;;;;;;;;;43.50;35.00;;;;;2.62;59.82;103478.72;1963181;28;2860693;-74
2023/02/08 01:57:37;;;;;;;;;41.50;36.50;;;;;2.63;59.48;103484.81;1967692;28;2856599;-74
2023/02/08 01:58:56;;;;;;;;;39.00;36.60;;;;;2.61;59.61;103479.56;2006828;28;3596068;-74
2023/02/08 02:00:14;;;;;;;;;39.50;31.50;;;;;2.62;60.17;103483.06;1992949;28;2875276;-74
2023/02/08 02:01:26;;;;;;;;;37.00;35.00;;;;;2.60;60.19;103477.78;1960502;28;2838811;-75
2023/02/08 02:02:38;;;;;;;;;23.50;17.00;;;;;2.60;59.67;103475.19;1977041;28;2816914;-75
2023/02/08 02:03:49;;;;;;;;;40.00;34.00;;;;;2.61;59.12;103476.09;1985595;28;2869007;-75
2023/02/08 02:05:00;;;;;;;;;36.00;35.40;;;;;2.61;60.18;103476.97;1973562;28;3591867;-75
2023/02/08 02:06:20;;;;;;;;;46.60;36.00;;;;;2.59;59.87;103473.44;1990995;28;3611664;-75
2023/02/08 02:07:32;;;;;;;;;37.67;36.00;;;;;2.58;59.74;103469.03;1954509;28;3585649;-75
2023/02/08 02:09:00;;;;;;;;;43.00;35.80;;;;;2.57;60.17;103469.84;2000242;28;3585653;-75
2023/02/08 02:10:20;;;;;;;;;41.50;35.50;;;;;2.56;59.60;103461.19;1985330;28;2854459;-74
2023/02/08 02:11:31;;;;;;;;;41.50;36.50;;;;;2.55;59.88;103463.69;1957291;28;2854486;-74
2023/02/08 02:12:44;;;;;;;;;39.60;34.40;;;;;2.55;60.23;103463.69;1971243;28;3594391;-74
2023/02/08 02:13:57;;;;;;;;;36.33;29.33;;;;;2.53;60.12;103458.44;1976521;28;3596077;-74
2023/02/08 02:15:09;;;;;;;;;41.00;36.67;;;;;2.53;60.26;103463.66;1960447;28;3593309;-74
2023/02/08 02:16:19;;;;;;;;;37.00;34.00;;;;;2.53;60.17;103462.75;1985435;28;2876321;-74
2023/02/08 02:17:32;;;;;;;;;40.00;34.00;;;;;2.53;59.70;103466.25;1973969;28;3617923;-74
2023/02/08 02:18:43;;;;;;;;;37.00;33.80;;;;;2.53;60.15;103462.75;1968347;28;3596039;-74
2023/02/08 02:20:18;;;;;;;;;37.20;33.20;;;;;2.51;59.54;103456.59;2000471;28;3596502;-74
2023/02/08 02:21:35;;;;;;;;;34.00;30.50;;;;;2.51;60.09;103454.00;1952828;28;2854452;-74
2023/02/08 02:23:05;;;;;;;;;40.33;33.33;;;;;2.51;60.16;103454.00;1956734;28;3608597;-74
2023/02/08 02:25:04;;;;;;;;;32.00;27.33;;;;;2.50;59.42;103453.09;1968191;28;3581476;-74
2023/02/08 02:26:29;;;;;;;;;38.00;32.00;;;;;2.50;60.03;103453.09;1982436;28;2866951;-74
2023/02/08 02:27:59;;;;;;;;;40.33;35.67;;;;;2.49;60.32;103446.16;1954658;28;3606489;-74
2023/02/08 02:29:36;;;;;;;;;37.00;35.00;;;;;2.50;59.93;103449.63;1980929;28;2853749;-74
2023/02/08 02:31:35;;;;;;;;;35.00;33.33;;;;;2.46;60.17;103436.53;1968221;28;3596069;-75
2023/02/08 02:32:57;;;;;;;;;37.33;30.00;;;;;2.47;59.84;103435.69;1983183;28;3602310;-74
2023/02/08 02:34:43;;;;;;;;;38.50;35.00;;;;;2.46;59.86;103433.94;1966216;28;2859638;-74
2023/02/08 02:36:20;;;;;;;;;34.00;31.50;;;;;2.46;60.27;103443.41;1946143;28;2856499;-75
2023/02/08 02:37:33;;;;;;;;;41.00;35.00;;;;;2.43;60.61;103431.19;1969046;28;2875268;-74
2023/02/08 02:39:06;;;;;;;;;43.00;35.00;;;;;2.42;60.17;103429.38;1968753;28;2873229;-74
2023/02/08 02:40:56;;;;;;;;;38.33;32.33;;;;;2.43;59.85;103425.09;1969557;28;3600223;-74
2023/02/08 02:43:59;;;;;;;;;34.00;33.00;;;;;2.41;59.76;103422.44;1985181;28;2850607;-74
2023/02/08 02:45:38;;;;;;;;;37.00;35.67;;;;;2.42;60.16;103424.19;1972998;28;3603347;-74
2023/02/08 02:47:14;;;;;;;;;39.00;33.67;;;;;2.42;60.28;103424.19;1963421;28;3612713;-74
2023/02/08 02:48:47;;;;;;;;;33.33;28.00;;;;;2.42;60.02;103424.19;1969568;28;3580527;-74
2023/02/08 02:50:23;;;;;;;;;32.33;26.00;;;;;2.41;60.02;103413.75;1986394;28;3585644;-74
2023/02/08 02:51:56;;;;;;;;;40.33;36.00;;;;;2.41;59.91;103411.16;1983141;28;3585692;-74
2023/02/08 02:53:30;;;;;;;;;34.00;29.33;;;;;2.42;60.21;103415.56;1987652;28;3582992;-75
2023/02/08 02:54:53;;;;;;;;;34.00;29.00;;;;;2.41;60.34;103414.66;1989556;28;3588772;-75
2023/02/08 02:56:11;;;;;;;;;41.00;31.00;;;;;2.40;59.58;103409.38;1991916;28;3614829;-74
2023/02/08 02:57:27;;;;;;;;;33.00;28.50;;;;;2.41;60.06;103405.97;1984604;28;2849227;-74
2023/02/08 02:58:41;;;;;;;;;43.00;35.33;;;;;2.42;59.81;103419.00;1978538;28;3598124;-74
2023/02/08 02:59:53;;;;;;;;;43.00;36.00;;;;;2.41;60.05;103412.06;1991988;28;3610663;-75
2023/02/08 03:01:04;;;;;;;;;35.67;29.67;;;;;2.41;60.50;103419.84;1978503;28;3595043;-75
2023/02/08 03:02:17;;;;;;;;;32.20;29.80;;;;;2.42;59.95;103410.34;2009343;28;3593991;-75
2023/02/08 03:03:33;;;;;;;;;36.67;35.67;;;;;2.40;59.97;103411.97;1985783;28;3604412;-75
2023/02/08 03:04:48;;;;;;;;;39.67;33.00;;;;;2.41;60.01;103409.47;1967423;28;3610695;-75
2023/02/08 03:06:05;;;;;;;;;35.67;29.00;;;;;2.42;59.49;103412.94;1960532;28;3601269;-75
2023/02/08 03:07:18;;;;;;;;;35.00;29.50;;;;;2.40;59.36;103407.66;1961983;28;2845041;-74
2023/02/08 03:09:07;;;;;;;;;42.50;32.50;;;;;2.41;60.15;103413.75;1984219;28;2874279;-74
2023/02/08 03:10:24;;;;;;;;;33.33;28.33;;;;;2.39;60.23;103403.31;1950039;28;3579395;-75
2023/02/08 03:11:36;;;;;;;;;36.00;29.33;;;;;2.38;60.12;103406.72;1984816;28;3585660;-75
2023/02/08 03:13:14;;;;;;;;;34.00;28.50;;;;;2.38;60.69;103411.91;1984920;28;2856506;-74
2023/02/08 03:14:54;;;;;;;;;40.50;33.00;;;;;2.37;60.82;103410.16;1961015;28;2871144;-74
2023/02/08 03:16:19;;;;;;;;;37.67;34.33;;;;;2.38;60.08;103403.22;1960614;28;3606524;-74
2023/02/08 03:18:00;;;;;;;;;33.00;28.67;;;;;2.37;59.96;103404.97;1962821;28;3589831;-74
2023/02/08 03:19:49;;;;;;;;;37.50;33.50;;;;;2.35;59.92;103407.47;1987356;28;2860669;-74
2023/02/08 03:21:31;;;;;;;;;43.33;35.33;;;;;2.34;60.75;103403.13;1958689;28;3602303;-74
2023/02/08 03:23:08;;;;;;;;;36.00;32.00;;;;;2.32;60.09;103412.50;1991797;28;3602334;-74
2023/02/08 03:24:25;;;;;;;;;28.33;26.33;;;;;2.32;59.89;103406.47;1983335;28;3580432;-74
2023/02/08 03:25:51;;;;;;;;;35.00;29.00;;;;;2.32;59.77;103406.47;1981547;28;3602299;-74
2023/02/08 03:27:14;;;;;;;;;37.00;34.67;;;;;2.32;59.93;103406.47;1959844;28;3601296;-74
2023/02/08 03:28:38;;;;;;;;;31.67;27.33;;;;;2.32;59.87;103406.47;1983962;28;3586746;-74
2023/02/08 03:30:10;;;;;;;;;38.50;33.00;;;;;2.31;59.90;103404.66;1984519;28;2866916;-74
2023/02/08 03:31:46;;;;;;;;;25.67;25.33;;;;;2.31;60.24;103405.56;1967498;28;3580436;-74
2023/02/08 03:33:10;;;;;;;;;33.50;30.50;;;;;2.31;60.00;103412.44;1977694;28;2848186;-74
2023/02/08 03:34:30;;;;;;;;;36.33;28.00;;;;;2.31;59.90;103415.06;1978372;28;3598140;-74
2023/02/08 03:35:56;;;;;;;;;39.00;30.50;;;;;2.28;59.49;103412.31;1984664;28;2869015;-74
2023/02/08 03:37:14;;;;;;;;;46.00;37.00;;;;;2.29;60.51;103411.50;1960860;28;2869014;-75
2023/02/08 03:38:34;;;;;;;;;34.67;32.00;;;;;2.27;59.96;103406.25;1959908;28;3598204;-75
2023/02/08 03:39:48;;;;;;;;;40.50;35.50;;;;;2.28;60.48;103408.00;1961154;28;2871121;-75
2023/02/08 03:41:03;;;;;;;;;35.50;32.50;;;;;2.28;59.84;103410.59;1965961;28;2859639;-75
2023/02/08 03:42:21;;;;;;;;;41.33;34.33;;;;;2.30;59.86;103418.44;1967822;28;3598165;-74
2023/02/08 03:43:50;;;;;;;;;41.50;33.50;;;;;2.28;59.86;103418.41;1968109;28;2863822;-75
2023/02/08 03:45:13;;;;;;;;;41.00;36.33;;;;;2.30;59.83;103418.44;1964923;28;3611685;-74
2023/02/08 03:46:32;;;;;;;;;37.67;33.00;;;;;2.30;59.75;103421.03;1966270;28;3600247;-74
2023/02/08 03:47:46;;;;;;;;;38.00;32.50;;;;;2.31;60.03;103420.25;1994146;28;2860689;-74
2023/02/08 03:49:02;;;;;;;;;38.00;32.00;;;;;2.30;59.47;103418.44;1970202;28;2869026;-74
2023/02/08 03:50:17;;;;;;;;;35.00;29.67;;;;;2.31;59.65;103417.66;1959874;28;3590868;-75
2023/02/08 03:51:31;;;;;;;;;35.00;30.00;;;;;2.31;60.04;103413.34;1956155;28;2849211;-74
2023/02/08 03:52:45;;;;;;;;;38.00;33.50;;;;;2.33;59.62;103423.78;1985723;28;2861719;-75
2023/02/08 03:53:59;;;;;;;;;35.00;31.00;;;;;2.34;59.64;103425.59;1962074;28;2859683;-74
2023/02/08 03:55:24;;;;;;;;;44.00;38.50;;;;;2.33;59.87;103419.50;1959731;28;2852336;-74
2023/02/08 03:56:49;;;;;;;;;37.33;33.33;;;;;2.35;59.75;103414.34;1963576;28;3604426;-74
2023/02/08 03:58:24;;;;;;;;;39.00;32.50;;;;;2.35;59.75;103422.16;1967887;28;2869380;-74
2023/02/08 03:59:39;;;;;;;;;46.00;34.33;;;;;2.33;60.30;103418.59;1962358;28;3624205;-74
2023/02/08 04:01:11;;;;;;;;;37.50;35.00;;;;;2.33;60.19;103418.59;1969088;28;2857568;-74
2023/02/08 04:02:27;;;;;;;;;46.67;36.67;;;;;2.34;60.10;103426.47;1961707;28;3585727;-74
2023/02/08 04:03:38;;;;;;;;;40.50;36.50;;;;;2.33;59.98;103423.78;1985170;28;2856506;-74
2023/02/08 04:04:50;;;;;;;;;43.00;36.00;;;;;2.35;59.65;103429.94;1961304;28;3585672;-74
2023/02/08 04:06:01;;;;;;;;;46.50;34.00;;;;;2.35;59.47;103427.34;1993106;28;2870068;-74
2023/02/08 04:07:16;;;;;;;;;32.00;31.33;;;;;2.35;59.80;103428.25;1973002;28;3596029;-74
2023/02/08 04:08:26;;;;;;;;;47.50;35.50;;;;;2.35;60.05;103425.63;1985529;28;2870024;-75
2023/02/08 04:09:38;;;;;;;;;43.00;35.33;;;;;2.36;59.49;103429.13;1977461;28;3599192;-75
2023/02/08 04:10:51;;;;;;;;;41.00;35.33;;;;;2.38;60.03;103424.88;1983786;28;3598128;-74
2023/02/08 04:12:03;;;;;;;;;50.33;38.00;;;;;2.37;59.75;103420.53;1986503;28;3608050;-74
2023/02/08 04:13:14;;;;;;;;;41.80;35.80;;;;;2.38;59.84;103424.88;1975476;28;3593943;-75
2023/02/08 04:14:26;;;;;;;;;44.80;36.20;;;;;2.36;60.09;103413.56;2012491;28;3604433;-74
2023/02/08 04:15:38;;;;;;;;;43.80;36.60;;;;;2.38;59.49;103421.41;1989623;28;3590814;-74
2023/02/08 04:16:51;;;;;;;;;38.60;34.40;;;;;2.38;58.98;103419.69;1982344;28;3601245;-74
2023/02/08 04:18:03;;;;;;;;;40.40;36.20;;;;;2.39;59.78;103416.28;1988587;28;3598140;-75
2023/02/08 04:19:14;;;;;;;;;47.00;39.00;;;;;2.39;59.38;103418.88;1987705;28;3588805;-74
2023/02/08 04:20:26;;;;;;;;;40.80;33.80;;;;;2.40;59.56;103414.56;2010690;28;3620404;-74
2023/02/08 04:21:38;;;;;;;;;43.00;36.40;;;;;2.40;59.50;103417.16;1986296;28;3596097;-75
2023/02/08 04:22:50;;;;;;;;;34.00;32.00;;;;;2.40;59.32;103406.78;2008375;28;3596061;-74
2023/02/08 04:24:02;;;;;;;;;39.60;35.60;;;;;2.41;59.41;103406.88;2009892;28;3584606;-74
2023/02/08 04:25:14;;;;;;;;;42.40;33.00;;;;;2.38;59.11;103404.13;2009173;28;3633903;-74
2023/02/08 04:26:26;;;;;;;;;41.00;31.20;;;;;2.40;59.38;103411.97;1988724;28;3624177;-74
2023/02/08 04:27:38;;;;;;;;;41.20;32.40;;;;;2.40;59.22;103407.66;1982467;28;3605798;-74
2023/02/08 04:28:50;;;;;;;;;44.00;36.67;;;;;2.40;59.08;103409.38;1967511;28;3592956;-74
2023/02/08 04:30:03;;;;;;;;;41.80;36.40;;;;;2.40;59.78;103405.06;1998307;28;3593945;-75
2023/02/08 04:31:14;;;;;;;;;45.00;36.00;;;;;2.38;58.85;103401.53;1986890;28;2855972;-74
2023/02/08 04:32:26;;;;;;;;;41.00;36.60;;;;;2.37;59.69;103407.56;1984935;28;3606481;-74
2023/02/08 04:33:38;;;;;;;;;45.00;34.40;;;;;2.38;59.55;103396.34;1986869;28;3626258;-75
2023/02/08 04:34:51;;;;;;;;;38.29;30.71;;;;;2.38;59.16;103392.84;1987071;28;3601272;-75
2023/02/08 04:36:03;;;;;;;;;41.33;35.33;;;;;2.37;59.44;103399.78;1978678;28;3589876;-74
2023/02/08 04:37:15;;;;;;;;;45.20;35.80;;;;;2.38;59.54;103395.44;1961222;28;3629385;-74
2023/02/08 04:38:27;;;;;;;;;44.60;37.00;;;;;2.36;59.83;103395.38;1974898;28;3592958;-75
2023/02/08 04:39:39;;;;;;;;;43.80;36.60;;;;;2.35;59.84;103393.59;1994813;28;3586686;-74
2023/02/08 04:40:51;;;;;;;;;51.00;37.67;;;;;2.34;59.14;103381.44;2000358;28;3587728;-74
2023/02/08 04:42:03;;;;;;;;;41.33;36.33;;;;;2.34;59.42;103390.13;1993624;28;3589847;-75
2023/02/08 04:43:15;;;;;;;;;46.00;37.00;;;;;2.33;59.38;103385.75;2001162;28;3592305;-75
2023/02/08 04:44:27;;;;;;;;;42.20;35.20;;;;;2.34;59.59;103389.25;1989183;28;3600223;-74
2023/02/08 04:45:39;;;;;;;;;43.33;34.33;;;;;2.33;59.32;103383.16;2007402;28;3611712;-74
2023/02/08 04:46:51;;;;;;;;;36.80;32.00;;;;;2.31;59.26;103377.00;1989502;28;3585600;-75
2023/02/08 04:48:03;;;;;;;;;38.40;35.00;;;;;2.31;59.18;103382.19;1996967;28;3597242;-75
2023/02/08 04:49:14;;;;;;;;;38.50;34.00;;;;;2.31;60.07;103383.91;1988045;28;2865875;-75
2023/02/08 04:50:26;;;;;;;;;40.67;33.33;;;;;2.29;59.63;103381.25;1976333;28;3604483;-75
2023/02/08 04:51:38;;;;;;;;;38.33;34.33;;;;;2.29;59.33;103380.34;1999954;28;3567346;-74
2023/02/08 04:52:50;;;;;;;;;29.33;24.00;;;;;2.28;59.62;103386.34;2000559;28;2830553;-75
2023/02/08 04:54:01;;;;;;;;;32.33;28.00;;;;;2.27;59.64;103385.50;1985291;28;3600224;-74
2023/02/08 04:55:13;;;;;;;;;39.00;34.80;;;;;2.27;59.49;103382.91;1984566;28;3608975;-74
2023/02/08 04:56:25;;;;;;;;;41.00;35.20;;;;;2.28;59.72;103381.16;1982413;28;3578338;-75
2023/02/08 04:57:37;;;;;;;;;42.67;35.00;;;;;2.26;59.32;103381.09;1999021;28;3621121;-74
2023/02/08 04:58:49;;;;;;;;;34.60;30.80;;;;;2.25;59.25;103375.00;1978273;28;3605393;-74
2023/02/08 05:00:03;;;;;;;;;40.80;35.00;;;;;2.24;59.33;103374.97;1972484;28;3609586;-75
2023/02/08 05:01:15;;;;;;;;;44.33;34.33;;;;;2.22;59.35;103380.06;1951815;28;3599201;-75
2023/02/08 05:02:26;;;;;;;;;45.33;36.33;;;;;2.21;58.46;103373.13;1968014;28;3613786;-74
2023/02/08 05:03:38;;;;;;;;;42.00;36.00;;;;;2.21;59.67;103383.50;1983925;28;3599197;-74
2023/02/08 05:04:50;;;;;;;;;45.67;38.67;;;;;2.19;59.05;103374.75;1997733;28;3611715;-75
2023/02/08 05:06:02;;;;;;;;;43.80;39.20;;;;;2.19;59.26;103377.34;1979236;28;3605386;-75
2023/02/08 05:07:14;;;;;;;;;40.00;30.00;;;;;2.18;59.30;103383.34;1975175;28;3612740;-75
2023/02/08 05:08:27;;;;;;;;;36.80;33.60;;;;;2.18;59.72;103380.75;1985552;28;3597072;-75
2023/02/08 05:09:37;;;;;;;;;44.00;36.00;;;;;2.15;59.27;103375.41;1993885;28;2858563;-75
2023/02/08 05:10:49;;;;;;;;;37.80;36.00;;;;;2.15;59.93;103377.16;1989790;28;3581434;-75
2023/02/08 05:12:01;;;;;;;;;36.67;34.00;;;;;2.13;59.24;103380.53;2006396;28;3598140;-75
2023/02/08 05:13:13;;;;;;;;;38.40;33.80;;;;;2.12;58.60;103368.38;1984465;28;3585625;-74
2023/02/08 05:14:25;;;;;;;;;43.20;34.60;;;;;2.12;59.30;103373.56;1996948;28;3600269;-74
2023/02/08 05:15:37;;;;;;;;;54.40;40.00;;;;;2.12;59.59;103372.72;1973223;28;3621060;-75
2023/02/08 05:16:49;;;;;;;;;37.33;33.00;;;;;2.12;59.58;103368.38;1971591;28;3609631;-74
2023/02/08 05:18:01;;;;;;;;;46.60;37.60;;;;;2.10;59.61;103369.16;2012917;28;3608522;-74
2023/02/08 05:19:13;;;;;;;;;47.40;35.00;;;;;2.11;59.41;103382.19;1987021;28;3609598;-74
2023/02/08 05:20:25;;;;;;;;;43.80;38.40;;;;;2.11;59.20;103373.50;1989072;28;3611096;-75
2023/02/08 05:21:37;;;;;;;;;45.60;39.00;;;;;2.08;59.29;103371.66;1988371;28;3600585;-75
2023/02/08 05:22:49;;;;;;;;;44.67;38.67;;;;;2.08;59.25;103378.56;1982969;28;3611681;-75
2023/02/08 05:24:01;;;;;;;;;47.80;39.80;;;;;2.07;59.54;103371.59;1988936;28;3609594;-75
2023/02/08 05:25:13;;;;;;;;;45.67;36.67;;;;;2.05;60.09;103375.84;1978681;28;3598209;-75
2023/02/08 05:26:25;;;;;;;;;40.67;36.00;;;;;2.05;59.64;103376.69;1997533;28;3583597;-75
2023/02/08 05:27:37;;;;;;;;;47.00;36.00;;;;;2.04;59.92;103379.25;2001622;28;3615863;-75
2023/02/08 05:28:49;;;;;;;;;41.40;35.60;;;;;2.04;59.67;103381.84;2007530;28;3599183;-75
2023/02/08 05:30:02;;;;;;;;;41.20;35.60;;;;;2.02;59.43;103377.44;1980484;28;3584977;-75
2023/02/08 05:31:21;;;;;;;;;43.50;35.50;;;;;2.02;59.75;103381.78;1982631;28;2855433;-74
2023/02/08 05:32:33;;;;;;;;;39.67;35.67;;;;;1.99;59.57;103377.34;1962113;28;3580433;-75
2023/02/08 05:33:45;;;;;;;;;46.80;36.80;;;;;1.98;59.55;103377.25;2004759;28;3614822;-75
2023/02/08 05:34:56;;;;;;;;;41.50;35.00;;;;;1.97;59.22;103368.59;1971010;28;2842953;-75
2023/02/08 05:36:08;;;;;;;;;37.33;32.67;;;;;1.96;59.70;103369.41;1976528;28;3602303;-75
2023/02/08 05:37:20;;;;;;;;;35.33;33.00;;;;;1.95;59.62;103367.63;1986091;28;3594046;-75
2023/02/08 05:38:32;;;;;;;;;41.20;36.40;;;;;1.95;59.67;103365.00;2004973;28;3590168;-75
2023/02/08 05:39:44;;;;;;;;;40.40;35.80;;;;;1.96;59.17;103365.91;2010352;28;3583627;-74
2023/02/08 05:40:56;;;;;;;;;40.33;33.67;;;;;1.92;59.82;103367.50;2003257;28;3584615;-75
2023/02/08 05:42:08;;;;;;;;;42.33;36.67;;;;;1.94;59.55;103365.84;2008466;28;3604441;-74
2023/02/08 05:43:20;;;;;;;;;47.00;36.40;;;;;1.92;59.55;103364.91;2003876;28;3600180;-74